X  Luk Metar data     EKYT Aalborg Airport
Temperatur
24°C Temperatur
19°C Dugpunkt
74% Fugtighed



Vind
23 KM/T
14 MPT
6 M/S
12 KNOB



110°
ØSØ
Nuværende forhold

Klart Klart
Tryk 1005.92 (hPa) - 29.7 (inHg)
Sigt 6.2 (mil) - 10 (km)
Lufthavn
Lufthavnskode EKYT

Lokation: Aalborg Airport
Afstand: 54 (km)

Metar:
EKYT 151020Z AUTO 11012KT 9999 NCD 24/19 Q1006

Tid: 15-08-2022 12:20 CEST